Time;durP1;ratioP1;P1;durP2;ratioP2;P2;SDS_P1;SDS_P2;PMS_P1;PMS_P2;Temp;Humidity;BMP_temperature;BMP_pressure;BME280_temperature;BME280_humidity;BME280_pressure;Samples;Min_cycle;Max_cycle;Signal;HPM_P1;HPM_P2
2021/03/13 00:01:08;;;;;;;31.80;17.95;;;-1.10;96.50;;;;;;5133518;27;20038;-77
2021/03/13 00:03:34;;;;;;;35.25;18.45;;;-1.10;96.70;;;;;;5133495;27;20028;-77
2021/03/13 00:06:00;;;;;;;36.17;19.02;;;-1.10;96.60;;;;;;5134306;27;20051;-77
2021/03/13 00:08:25;;;;;;;28.73;15.98;;;-1.10;96.90;;;;;;5134881;27;20023;-76
2021/03/13 00:10:51;;;;;;;29.20;16.30;;;-1.00;96.70;;;;;;5134704;27;20156;-77
2021/03/13 00:13:17;;;;;;;33.90;15.77;;;-1.00;97.00;;;;;;5133641;28;20030;-77
2021/03/13 00:15:44;;;;;;;23.42;13.10;;;-0.90;96.60;;;;;;5133232;28;20026;-77
2021/03/13 00:18:11;;;;;;;26.25;14.30;;;-0.90;96.40;;;;;;5133309;28;20117;-77
2021/03/13 00:20:38;;;;;;;29.98;14.73;;;-0.90;96.70;;;;;;5134592;27;20092;-77
2021/03/13 00:23:05;;;;;;;23.02;12.05;;;-0.90;96.80;;;;;;5133118;28;20076;-76
2021/03/13 00:25:31;;;;;;;25.70;13.90;;;-0.80;96.60;;;;;;5134581;27;20031;-76
2021/03/13 00:27:58;;;;;;;28.40;15.82;;;-0.80;96.90;;;;;;5135205;27;20110;-76
2021/03/13 00:30:25;;;;;;;25.58;14.68;;;-0.80;96.80;;;;;;5138568;27;20023;-77
2021/03/13 00:32:53;;;;;;;27.00;14.07;;;-0.80;96.90;;;;;;5137316;27;20019;-77
2021/03/13 00:35:20;;;;;;;31.52;15.13;;;-0.80;97.00;;;;;;5137202;27;20023;-77
2021/03/13 00:37:48;;;;;;;28.50;14.13;;;-0.80;97.10;;;;;;5139060;27;20029;-77
2021/03/13 00:40:16;;;;;;;30.27;15.65;;;-0.70;96.90;;;;;;5137423;27;20023;-77
2021/03/13 00:42:43;;;;;;;27.60;14.15;;;-0.70;97.10;;;;;;5137669;27;20444;-77
2021/03/13 00:45:12;;;;;;;29.60;15.30;;;-0.70;97.00;;;;;;5138469;27;20072;-77
2021/03/13 00:47:38;;;;;;;24.30;11.95;;;-0.70;97.00;;;;;;5136880;27;20027;-77
2021/03/13 00:50:06;;;;;;;28.35;14.75;;;-0.60;96.70;;;;;;5137003;27;20057;-77
2021/03/13 00:52:33;;;;;;;34.67;16.35;;;-0.60;96.50;;;;;;5138176;27;20046;-76
2021/03/13 00:54:59;;;;;;;31.48;15.32;;;-0.60;96.60;;;;;;5136827;27;20053;-77
2021/03/13 00:57:26;;;;;;;37.05;18.05;;;-0.60;96.90;;;;;;5119659;27;20034;-77
2021/03/13 00:59:53;;;;;;;34.35;17.23;;;-0.60;97.00;;;;;;5136700;27;20024;-77
2021/03/13 01:02:19;;;;;;;37.20;16.60;;;-0.60;97.10;;;;;;5137009;27;20030;-76
2021/03/13 01:04:44;;;;;;;36.15;17.08;;;-0.60;96.90;;;;;;5137788;27;20035;-77
2021/03/13 01:07:10;;;;;;;39.85;17.55;;;-0.50;96.70;;;;;;5135989;27;20146;-76
2021/03/13 01:09:36;;;;;;;42.45;18.90;;;-0.60;96.90;;;;;;5137697;27;20019;-76
2021/03/13 01:12:03;;;;;;;49.17;20.02;;;-0.60;97.00;;;;;;5136564;27;20015;-76
2021/03/13 01:14:29;;;;;;;45.55;20.08;;;-0.50;97.00;;;;;;5136210;27;20107;-77
2021/03/13 01:16:55;;;;;;;47.10;21.52;;;-0.50;97.00;;;;;;5136494;27;20026;-76
2021/03/13 01:19:21;;;;;;;42.83;19.35;;;-0.50;97.10;;;;;;5136362;27;20023;-76
2021/03/13 01:21:46;;;;;;;40.83;18.10;;;-0.50;97.00;;;;;;5137616;27;20023;-76
2021/03/13 01:24:12;;;;;;;42.88;19.10;;;-0.40;96.70;;;;;;5137268;27;20110;-76
2021/03/13 01:26:38;;;;;;;43.97;18.38;;;-0.40;96.70;;;;;;5136121;27;20473;-77
2021/03/13 01:29:05;;;;;;;51.70;21.10;;;-0.30;96.80;;;;;;5137480;27;20495;-76
2021/03/13 01:31:31;;;;;;;44.42;19.52;;;-0.30;97.00;;;;;;5137771;27;20027;-76
2021/03/13 01:33:57;;;;;;;42.00;20.38;;;-0.30;96.70;;;;;;5137250;27;20106;-76
2021/03/13 01:36:23;;;;;;;53.20;22.73;;;-0.20;96.80;;;;;;5136042;27;20056;-76
2021/03/13 01:38:48;;;;;;;59.45;25.63;;;-0.20;96.70;;;;;;5118300;27;20476;-75
2021/03/13 01:41:15;;;;;;;52.80;25.33;;;-0.20;96.70;;;;;;5118709;27;20035;-76
2021/03/13 01:43:41;;;;;;;71.38;29.13;;;-0.10;96.70;;;;;;5137194;27;20027;-76
2021/03/13 01:46:07;;;;;;;47.58;23.73;;;-0.10;96.90;;;;;;5136868;27;20033;-76
2021/03/13 01:48:37;;;;;;;44.70;21.70;;;-0.10;96.80;;;;;;5136911;27;20027;-76
2021/03/13 01:51:04;;;;;;;46.80;20.08;;;0.00;96.70;;;;;;5135806;27;20042;-76
2021/03/13 01:53:30;;;;;;;42.70;19.05;;;0.00;96.70;;;;;;5118735;27;20027;-76
2021/03/13 01:55:56;;;;;;;36.63;18.08;;;0.00;96.70;;;;;;5118662;27;20045;-76
2021/03/13 01:58:22;;;;;;;35.05;16.73;;;0.10;96.60;;;;;;5136575;27;20027;-76
2021/03/13 02:00:48;;;;;;;37.15;18.23;;;0.10;96.60;;;;;;5137057;27;20050;-76
2021/03/13 02:03:14;;;;;;;49.33;21.48;;;0.10;96.70;;;;;;5136509;27;20803;-76
2021/03/13 02:05:44;;;;;;;33.38;17.70;;;0.10;96.70;;;;;;5136665;27;20065;-75
2021/03/13 02:08:31;;;;;;;39.60;19.52;;;0.20;96.60;;;;;;5136323;27;20490;-76
2021/03/13 02:11:04;;;;;;;36.75;17.90;;;0.20;96.60;;;;;;5136643;27;20030;-77
2021/03/13 02:13:54;;;;;;;43.40;20.73;;;0.20;96.90;;;;;;5136712;27;20429;-77
2021/03/13 02:16:28;;;;;;;43.47;18.25;;;0.20;96.90;;;;;;5114795;28;20030;-76
2021/03/13 02:19:15;;;;;;;38.20;17.63;;;0.20;96.80;;;;;;5114799;28;20058;-77
2021/03/13 02:21:53;;;;;;;52.33;23.92;;;0.20;96.80;;;;;;5114553;28;20066;-77
2021/03/13 02:24:48;;;;;;;46.25;21.00;;;0.20;97.10;;;;;;5097933;28;20024;-76
2021/03/13 02:27:28;;;;;;;40.72;18.63;;;0.20;96.90;;;;;;5116028;28;20020;-77
2021/03/13 02:30:04;;;;;;;41.30;19.65;;;0.20;96.70;;;;;;5114445;28;20047;-76
2021/03/13 02:33:11;;;;;;;48.40;22.05;;;0.30;96.70;;;;;;5115622;28;20106;-77
2021/03/13 02:35:44;;;;;;;48.90;20.27;;;0.20;96.90;;;;;;5053200;28;20029;-76
2021/03/13 02:38:17;;;;;;;46.22;21.83;;;0.30;96.90;;;;;;5036108;28;20394;-77
2021/03/13 02:40:46;;;;;;;43.35;19.75;;;0.30;96.80;;;;;;5079042;28;20028;-77
2021/03/13 02:43:13;;;;;;;51.15;22.35;;;0.30;96.80;;;;;;5114526;28;20495;-77
2021/03/13 02:45:50;;;;;;;57.60;26.58;;;0.30;97.00;;;;;;5115275;28;20024;-77
2021/03/13 02:48:19;;;;;;;48.42;22.05;;;0.20;97.00;;;;;;5113662;28;20054;-77
2021/03/13 02:50:45;;;;;;;60.40;25.92;;;0.30;97.00;;;;;;5114451;28;20354;-77
2021/03/13 02:53:12;;;;;;;53.50;23.88;;;0.30;97.10;;;;;;5113981;28;20019;-77
2021/03/13 02:55:39;;;;;;;52.30;24.63;;;0.30;97.10;;;;;;5113829;28;20031;-77
2021/03/13 02:58:05;;;;;;;56.83;25.70;;;0.30;97.00;;;;;;5113898;28;20020;-77
2021/03/13 03:00:35;;;;;;;57.90;24.80;;;0.30;97.10;;;;;;5116828;27;20110;-77
2021/03/13 03:03:03;;;;;;;60.75;27.63;;;0.30;97.10;;;;;;5134360;27;20058;-77
2021/03/13 03:05:30;;;;;;;55.35;24.08;;;0.30;97.20;;;;;;5133772;27;20058;-77
2021/03/13 03:07:59;;;;;;;55.08;25.40;;;0.30;97.30;;;;;;5134106;27;20392;-77
2021/03/13 03:10:29;;;;;;;60.72;26.75;;;0.40;97.10;;;;;;5134401;27;20080;-77
2021/03/13 03:12:57;;;;;;;73.13;32.50;;;0.40;97.20;;;;;;5134782;27;20528;-77
2021/03/13 03:15:27;;;;;;;82.47;35.08;;;0.40;97.40;;;;;;5133280;27;20529;-76
2021/03/13 03:17:59;;;;;;;94.45;38.60;;;0.40;97.30;;;;;;5134699;27;20094;-77
2021/03/13 03:20:26;;;;;;;93.55;38.88;;;0.40;97.50;;;;;;5133419;27;20031;-77
2021/03/13 03:22:53;;;;;;;82.32;37.15;;;0.40;97.40;;;;;;5135260;27;20023;-77
2021/03/13 03:25:19;;;;;;;62.63;29.58;;;0.50;97.30;;;;;;5133822;27;20058;-78
2021/03/13 03:27:50;;;;;;;78.80;35.60;;;0.50;97.20;;;;;;5133875;27;20051;-77
2021/03/13 03:30:27;;;;;;;78.50;34.08;;;0.50;97.20;;;;;;5116904;27;20027;-77
2021/03/13 03:32:53;;;;;;;75.35;33.10;;;0.50;97.30;;;;;;5133893;27;20019;-78
2021/03/13 03:35:21;;;;;;;73.10;32.00;;;0.50;97.60;;;;;;5133709;27;20381;-77
2021/03/13 03:37:48;;;;;;;73.45;32.08;;;0.50;97.40;;;;;;5135079;27;20104;-77
2021/03/13 03:40:18;;;;;;;73.97;32.38;;;0.50;97.40;;;;;;5134998;27;20019;-77
2021/03/13 03:43:00;;;;;;;82.57;36.38;;;0.60;97.50;;;;;;5131387;27;20030;-76
2021/03/13 03:45:26;;;;;;;72.35;32.55;;;0.60;97.50;;;;;;5133519;27;20019;-76
2021/03/13 03:47:54;;;;;;;65.57;30.00;;;0.60;97.30;;;;;;5133482;27;20377;-76
2021/03/13 03:50:22;;;;;;;67.35;30.45;;;0.60;97.20;;;;;;5116789;27;20477;-77
2021/03/13 03:52:51;;;;;;;68.95;31.10;;;0.70;97.20;;;;;;5112587;28;20020;-76
2021/03/13 03:55:18;;;;;;;60.90;29.33;;;0.70;97.10;;;;;;5112803;28;20019;-77
2021/03/13 03:57:45;;;;;;;76.85;34.95;;;0.70;97.20;;;;;;5112476;28;20031;-77
2021/03/13 04:00:11;;;;;;;65.30;29.48;;;0.70;97.30;;;;;;5113869;28;20023;-78
2021/03/13 04:02:38;;;;;;;77.78;34.55;;;0.70;97.30;;;;;;5131469;27;20061;-79
2021/03/13 04:05:07;;;;;;;70.63;33.85;;;0.70;97.40;;;;;;5134165;27;20031;-79
2021/03/13 04:07:35;;;;;;;64.57;30.23;;;0.70;97.30;;;;;;5115941;28;20395;-76
2021/03/13 04:10:06;;;;;;;79.55;35.33;;;0.80;97.30;;;;;;5133880;27;20467;-76
2021/03/13 04:12:33;;;;;;;88.63;41.03;;;0.80;97.30;;;;;;5115379;28;20402;-79
2021/03/13 04:15:00;;;;;;;75.60;32.42;;;0.80;97.60;;;;;;5132524;28;20110;-78
2021/03/13 04:17:27;;;;;;;85.95;39.33;;;0.80;97.50;;;;;;5132266;28;20078;-78
2021/03/13 04:19:54;;;;;;;100.50;45.20;;;0.80;97.40;;;;;;5132573;28;20079;-78
2021/03/13 04:22:22;;;;;;;111.90;47.42;;;0.80;97.50;;;;;;5133716;27;20050;-78
2021/03/13 04:24:49;;;;;;;97.70;39.15;;;0.80;97.60;;;;;;5132739;28;20498;-77
2021/03/13 04:27:17;;;;;;;89.60;39.40;;;0.80;97.60;;;;;;5133698;27;20019;-81
2021/03/13 04:29:44;;;;;;;90.45;39.50;;;0.90;97.50;;;;;;5132316;28;20068;-79
2021/03/13 04:32:10;;;;;;;73.60;31.92;;;0.90;97.50;;;;;;5132256;28;20026;-78
2021/03/13 04:34:36;;;;;;;71.15;33.80;;;0.90;97.40;;;;;;5115566;28;20016;-79
2021/03/13 04:37:03;;;;;;;71.93;31.40;;;1.00;97.30;;;;;;5132644;28;20023;-79
2021/03/13 04:39:29;;;;;;;71.35;33.45;;;1.00;97.30;;;;;;5132639;28;20404;-79
2021/03/13 04:41:56;;;;;;;74.80;32.60;;;1.00;97.30;;;;;;5133721;27;20027;-78
2021/03/13 04:44:22;;;;;;;75.30;30.13;;;1.00;97.30;;;;;;5115174;28;20035;-79
2021/03/13 04:46:50;;;;;;;61.63;29.88;;;1.10;97.30;;;;;;5133565;27;20476;-78
2021/03/13 04:49:16;;;;;;;64.45;28.77;;;1.10;97.20;;;;;;5132247;28;20030;-78
2021/03/13 04:51:44;;;;;;;74.70;33.95;;;1.10;97.20;;;;;;5133685;28;20026;-79
2021/03/13 04:54:13;;;;;;;70.78;33.28;;;1.10;97.20;;;;;;5115249;28;20067;-78
2021/03/13 04:56:39;;;;;;;62.90;31.73;;;1.20;97.20;;;;;;5115967;28;20366;-79
2021/03/13 04:59:06;;;;;;;66.70;33.97;;;1.20;97.10;;;;;;5133989;27;20050;-78
2021/03/13 05:01:31;;;;;;;58.38;28.67;;;1.20;97.10;;;;;;5115354;28;20031;-78
2021/03/13 05:03:58;;;;;;;66.10;32.15;;;1.20;97.20;;;;;;5134019;27;20038;-79
2021/03/13 05:06:23;;;;;;;59.03;27.45;;;1.30;97.40;;;;;;5131966;28;20051;-79
2021/03/13 05:08:49;;;;;;;61.17;28.80;;;1.30;97.20;;;;;;5133946;27;20388;-79
2021/03/13 05:11:16;;;;;;;54.50;26.63;;;1.30;97.20;;;;;;5132117;28;20472;-78
2021/03/13 05:13:44;;;;;;;62.15;30.25;;;1.30;97.10;;;;;;5134999;27;20484;-79
2021/03/13 05:16:09;;;;;;;62.72;30.58;;;1.40;97.40;;;;;;5136278;27;20502;-79
2021/03/13 05:18:35;;;;;;;58.55;30.92;;;1.40;97.10;;;;;;5137262;27;20031;-80
2021/03/13 05:21:01;;;;;;;66.10;31.88;;;1.40;97.10;;;;;;5137192;27;20089;-79
2021/03/13 05:23:27;;;;;;;70.88;33.30;;;1.40;97.20;;;;;;5136102;27;20027;-78
2021/03/13 05:25:53;;;;;;;66.00;32.70;;;1.40;97.10;;;;;;5135760;27;20024;-79
2021/03/13 05:28:19;;;;;;;64.90;31.73;;;1.40;97.20;;;;;;5135923;27;20439;-79
2021/03/13 05:30:44;;;;;;;65.30;33.83;;;1.40;97.20;;;;;;5135881;27;20019;-79
2021/03/13 05:33:10;;;;;;;61.13;30.58;;;1.50;97.20;;;;;;5135872;27;20031;-80
2021/03/13 05:35:38;;;;;;;59.90;31.67;;;1.60;97.10;;;;;;5136851;27;20399;-79
2021/03/13 05:38:04;;;;;;;60.50;31.42;;;1.60;97.10;;;;;;5135636;27;20464;-80
2021/03/13 05:40:30;;;;;;;56.30;30.58;;;1.60;97.00;;;;;;5135707;27;20441;-79
2021/03/13 05:42:56;;;;;;;73.53;36.28;;;1.60;96.90;;;;;;5135358;27;20078;-80
2021/03/13 05:45:23;;;;;;;68.28;33.65;;;1.60;96.80;;;;;;5136816;27;20015;-80
2021/03/13 05:47:49;;;;;;;67.10;33.58;;;1.60;96.80;;;;;;5136673;27;20061;-80
2021/03/13 05:50:17;;;;;;;72.15;36.20;;;1.60;96.90;;;;;;5136495;27;20024;-82
2021/03/13 05:52:53;;;;;;;70.38;35.15;;;1.50;96.90;;;;;;5135409;27;20236;-83
2021/03/13 05:55:19;;;;;;;61.15;31.77;;;1.50;97.00;;;;;;5135445;27;20148;-83
2021/03/13 05:57:44;;;;;;;77.63;38.85;;;1.50;97.00;;;;;;5135295;27;20034;-83
2021/03/13 06:00:11;;;;;;;76.38;38.55;;;1.50;96.90;;;;;;5118133;27;20031;-82
2021/03/13 06:02:37;;;;;;;74.50;36.47;;;1.50;97.00;;;;;;5135211;27;20023;-82
2021/03/13 06:05:04;;;;;;;75.75;38.50;;;1.60;97.00;;;;;;5134994;27;20371;-82
2021/03/13 06:07:32;;;;;;;70.22;37.60;;;1.60;97.00;;;;;;5135325;27;20030;-81
2021/03/13 06:09:58;;;;;;;74.07;35.90;;;1.60;97.00;;;;;;5118046;27;20391;-82
2021/03/13 06:12:25;;;;;;;70.65;36.85;;;1.70;97.00;;;;;;5134837;27;20102;-82
2021/03/13 06:14:54;;;;;;;64.68;33.22;;;1.70;97.00;;;;;;5134539;27;20384;-80
2021/03/13 06:17:22;;;;;;;62.60;34.38;;;1.80;97.00;;;;;;5134896;27;20030;-81
2021/03/13 06:19:56;;;;;;;75.00;36.25;;;1.80;96.90;;;;;;5135770;27;20018;-81
2021/03/13 06:22:31;;;;;;;73.03;35.88;;;1.80;96.90;;;;;;5134418;27;20034;-82
2021/03/13 06:25:27;;;;;;;72.95;36.80;;;1.90;96.90;;;;;;5134636;27;20030;-82
2021/03/13 06:28:14;;;;;;;65.95;34.00;;;1.90;96.90;;;;;;5122970;27;20032;-83
2021/03/13 06:30:51;;;;;;;64.50;35.13;;;1.90;96.80;;;;;;5135956;27;20109;-83
2021/03/13 06:33:31;;;;;;;58.30;32.60;;;2.10;96.80;;;;;;5135733;27;20023;-84
2021/03/13 06:35:58;;;;;;;68.18;35.03;;;2.10;96.90;;;;;;5134420;27;20118;-85
2021/03/13 06:38:27;;;;;;;65.53;36.85;;;2.20;96.60;;;;;;5135800;27;20034;-85
2021/03/13 06:40:54;;;;;;;68.00;35.67;;;2.30;96.30;;;;;;5135848;27;20376;-83
2021/03/13 06:43:31;;;;;;;67.05;35.55;;;2.40;96.40;;;;;;5134332;27;20204;-82
2021/03/13 06:46:07;;;;;;;69.25;36.80;;;2.40;96.50;;;;;;5134259;27;20029;-80
2021/03/13 06:48:51;;;;;;;98.30;51.90;;;2.50;96.60;;;;;;5136008;27;20050;-94
2021/03/13 06:51:33;;;;;;;125.60;64.72;;;2.50;96.30;;;;;;5135629;27;20476;-80
2021/03/13 06:54:08;;;;;;;144.85;63.95;;;2.60;96.30;;;;;;5134134;27;20023;-81
2021/03/13 06:56:55;;;;;;;92.97;47.55;;;2.60;96.20;;;;;;5134064;27;20156;-81
2021/03/13 06:59:39;;;;;;;76.70;39.45;;;2.70;96.10;;;;;;5134155;27;20384;-82
2021/03/13 07:02:12;;;;;;;65.38;38.33;;;2.70;96.30;;;;;;5135379;27;20019;-82
2021/03/13 07:04:40;;;;;;;95.07;49.38;;;2.80;96.20;;;;;;5135437;27;20114;-82
2021/03/13 07:07:07;;;;;;;73.03;39.50;;;2.80;96.50;;;;;;5133761;27;20388;-87
2021/03/13 07:09:51;;;;;;;74.82;42.88;;;2.90;96.20;;;;;;5134557;27;20472;-87
2021/03/13 07:12:29;;;;;;;67.68;36.80;;;2.90;96.10;;;;;;5134277;27;20489;-88
2021/03/13 07:15:18;;;;;;;62.28;36.38;;;2.90;95.60;;;;;;5134473;27;20019;-87
2021/03/13 07:17:53;;;;;;;64.40;35.90;;;3.00;95.70;;;;;;5134342;27;20549;-87
2021/03/13 07:20:26;;;;;;;58.53;33.13;;;3.00;95.70;;;;;;5133991;27;20035;-86
2021/03/13 07:22:54;;;;;;;61.45;36.15;;;3.10;96.00;;;;;;5134145;27;20023;-87
2021/03/13 07:25:22;;;;;;;58.70;33.33;;;3.10;95.70;;;;;;5134189;27;20058;-88
2021/03/13 07:27:55;;;;;;;54.60;30.92;;;3.10;95.90;;;;;;5134359;27;20023;-94
2021/03/13 07:30:22;;;;;;;55.08;31.77;;;3.30;96.00;;;;;;5117537;27;20034;-89
2021/03/13 07:33:01;;;;;;;60.40;31.50;;;3.30;95.80;;;;;;5134143;27;20062;-86
2021/03/13 07:35:32;;;;;;;61.40;33.97;;;3.40;95.80;;;;;;5135921;27;20023;-88
2021/03/13 07:38:02;;;;;;;60.13;33.63;;;3.40;95.40;;;;;;5135001;27;20024;-87
2021/03/13 07:40:28;;;;;;;;;;;3.50;95.50;;;;;;5136138;27;20043;-87
2021/03/13 07:42:55;;;;;;;58.20;33.60;;;3.60;95.50;;;;;;5134059;27;19938;-88
2021/03/13 07:45:21;;;;;;;61.00;35.50;;;3.60;95.70;;;;;;5134035;27;20024;-88
2021/03/13 07:47:48;;;;;;;61.22;34.70;;;3.60;95.50;;;;;;5116820;27;20113;-88
2021/03/13 07:50:15;;;;;;;64.55;37.33;;;3.70;95.40;;;;;;5135431;27;20015;-88
2021/03/13 07:52:48;;;;;;;64.07;35.08;;;3.70;95.40;;;;;;5133810;27;20337;-88
2021/03/13 07:55:16;;;;;;;60.90;35.75;;;3.80;95.40;;;;;;5133731;27;20445;-89
2021/03/13 07:57:50;;;;;;;61.28;35.33;;;3.80;95.20;;;;;;5133892;27;20460;-89
2021/03/13 08:00:17;;;;;;;77.65;40.25;;;3.80;95.20;;;;;;5133661;27;20031;-88
2021/03/13 08:02:47;;;;;;;62.35;35.35;;;3.90;95.30;;;;;;5133255;28;20023;-88
2021/03/13 08:05:17;;;;;;;60.58;35.97;;;3.90;95.20;;;;;;5131197;27;20114;-88
2021/03/13 08:07:57;;;;;;;66.38;38.28;;;3.90;95.10;;;;;;5134837;27;20063;-89
2021/03/13 08:10:46;;;;;;;65.35;35.40;;;3.90;95.10;;;;;;5134654;27;20023;-87
2021/03/13 08:13:37;;;;;;;58.15;35.30;;;4.00;95.10;;;;;;5133308;28;20027;-89
2021/03/13 08:16:06;;;;;;;60.50;34.92;;;3.90;94.90;;;;;;5124771;27;20043;-87
2021/03/13 08:18:41;;;;;;;63.00;35.15;;;4.00;95.00;;;;;;5133435;28;20023;-85
2021/03/13 08:21:22;;;;;;;67.72;39.63;;;4.00;94.80;;;;;;5134681;27;20027;-89
2021/03/13 08:23:52;;;;;;;57.65;33.92;;;4.00;94.70;;;;;;5133272;28;20075;-86
2021/03/13 08:26:19;;;;;;;61.08;34.60;;;4.10;94.80;;;;;;5134478;27;20023;-88
2021/03/13 08:29:06;;;;;;;59.85;34.15;;;4.10;94.80;;;;;;5134207;27;20026;-87
2021/03/13 08:31:35;;;;;;;61.63;36.35;;;4.20;94.90;;;;;;5134464;28;20027;-87
2021/03/13 08:34:09;;;;;;;58.08;35.25;;;4.10;94.40;;;;;;5132899;28;20024;-87
2021/03/13 08:36:46;;;;;;;56.13;33.92;;;4.20;94.80;;;;;;5132608;28;20062;-80
2021/03/13 08:39:14;;;;;;;58.13;33.92;;;4.20;94.30;;;;;;5132575;28;20030;-81
2021/03/13 08:41:44;;;;;;;58.92;34.78;;;4.40;94.90;;;;;;5133837;27;20053;-80
2021/03/13 08:44:33;;;;;;;63.42;36.33;;;4.50;94.10;;;;;;5132593;28;20384;-79
2021/03/13 08:47:05;;;;;;;67.78;39.80;;;4.70;94.70;;;;;;5132017;27;20023;-79
2021/03/13 08:49:31;;;;;;;62.03;37.00;;;4.90;94.40;;;;;;5135357;27;20472;-79
2021/03/13 08:52:19;;;;;;;59.95;37.28;;;5.10;94.00;;;;;;5137832;27;20022;-78
2021/03/13 08:54:50;;;;;;;73.53;46.42;;;5.20;93.50;;;;;;5128001;27;20046;-79
2021/03/13 08:57:17;;;;;;;57.25;36.47;;;5.20;93.80;;;;;;5131485;27;20054;-79
2021/03/13 08:59:44;;;;;;;62.85;38.28;;;5.30;94.10;;;;;;5137690;27;20540;-79
2021/03/13 09:02:17;;;;;;;75.70;45.33;;;5.40;93.80;;;;;;5136353;27;20038;-80
2021/03/13 09:04:46;;;;;;;49.88;30.98;;;5.50;94.20;;;;;;5136268;27;20032;-80
2021/03/13 09:07:20;;;;;;;54.65;31.88;;;5.70;94.20;;;;;;5135486;27;20130;-81
2021/03/13 09:09:46;;;;;;;49.33;32.13;;;5.80;93.80;;;;;;5136169;27;20023;-81
2021/03/13 09:12:21;;;;;;;51.00;32.63;;;5.80;93.70;;;;;;5135188;27;20464;-80
2021/03/13 09:14:51;;;;;;;65.90;39.58;;;5.90;93.30;;;;;;5116851;28;20027;-79
2021/03/13 09:17:20;;;;;;;54.10;32.97;;;5.90;91.10;;;;;;5115636;28;20077;-79
2021/03/13 09:19:47;;;;;;;54.75;33.28;;;6.00;93.10;;;;;;5117036;27;20035;-79
2021/03/13 09:22:17;;;;;;;70.85;40.90;;;6.10;92.90;;;;;;5081579;28;20469;-80
2021/03/13 09:24:51;;;;;;;55.40;32.92;;;5.90;91.60;;;;;;5115668;28;20540;-80
2021/03/13 09:27:17;;;;;;;62.55;34.33;;;6.00;92.70;;;;;;5114924;28;20044;-80
2021/03/13 09:29:42;;;;;;;50.58;30.02;;;6.00;92.40;;;;;;5114728;28;20530;-80
2021/03/13 09:32:10;;;;;;;58.53;35.08;;;6.10;92.70;;;;;;5115180;28;20381;-80
2021/03/13 09:34:38;;;;;;;52.10;30.65;;;6.00;91.90;;;;;;5114796;28;20376;-81
2021/03/13 09:37:36;;;;;;;;;;;;;;;;;;;;;
2021/03/13 09:40:15;;;;;;;44.08;27.83;;;6.00;91.00;;;;;;5116380;28;20038;-80
2021/03/13 09:42:51;;;;;;;50.35;30.80;;;6.10;92.40;;;;;;5116206;28;20465;-80
2021/03/13 09:45:25;;;;;;;49.90;30.55;;;6.20;92.40;;;;;;5115868;28;20034;-80
2021/03/13 09:48:00;;;;;;;60.03;37.05;;;6.30;91.80;;;;;;5114494;28;20024;-80
2021/03/13 09:50:34;;;;;;;47.85;28.50;;;6.30;91.50;;;;;;5114819;28;20045;-80
2021/03/13 09:53:02;;;;;;;59.20;35.67;;;6.50;92.20;;;;;;5116091;28;20047;-80
2021/03/13 09:55:29;;;;;;;64.57;38.20;;;6.40;91.40;;;;;;5114138;28;20031;-80
2021/03/13 09:57:56;;;;;;;67.93;37.20;;;6.50;92.20;;;;;;5114690;28;20034;-80
2021/03/13 10:00:25;;;;;;;46.17;27.52;;;6.50;92.00;;;;;;5114272;28;20027;-78
2021/03/13 10:02:52;;;;;;;41.72;25.48;;;6.50;91.80;;;;;;5133029;27;20034;-79
2021/03/13 10:05:23;;;;;;;47.58;29.05;;;6.40;91.30;;;;;;5155728;27;20380;-79
2021/03/13 10:07:51;;;;;;;44.00;28.05;;;6.40;91.50;;;;;;5155678;27;20073;-79
2021/03/13 10:10:22;;;;;;;48.28;29.45;;;6.40;91.60;;;;;;5156896;27;20025;-79
2021/03/13 10:12:51;;;;;;;53.58;32.75;;;6.30;91.60;;;;;;5155211;27;20031;-79
2021/03/13 10:15:21;;;;;;;48.60;30.38;;;6.40;91.50;;;;;;5138277;27;20030;-79
2021/03/13 10:18:05;;;;;;;46.43;30.53;;;6.30;91.80;;;;;;5156528;27;20071;-79
2021/03/13 10:20:36;;;;;;;42.53;27.85;;;6.30;91.30;;;;;;5155228;27;20026;-79
2021/03/13 10:23:23;;;;;;;43.63;27.33;;;6.30;91.40;;;;;;5155103;27;20022;-79
2021/03/13 10:25:57;;;;;;;51.40;31.95;;;6.30;91.50;;;;;;5156628;27;20021;-79
2021/03/13 10:28:28;;;;;;;47.38;30.02;;;6.30;91.20;;;;;;5156619;27;20022;-80
2021/03/13 10:31:04;;;;;;;41.47;26.65;;;6.30;91.10;;;;;;5155437;27;20030;-80
2021/03/13 10:33:31;;;;;;;46.25;28.33;;;6.40;90.70;;;;;;5154950;27;20109;-80
2021/03/13 10:35:57;;;;;;;42.22;27.63;;;6.40;91.00;;;;;;5155316;27;20031;-80
2021/03/13 10:38:23;;;;;;;39.85;26.77;;;6.40;90.40;;;;;;5156460;27;20492;-81
2021/03/13 10:40:52;;;;;;;38.08;25.08;;;6.30;90.30;;;;;;5154922;27;20082;-80
2021/03/13 10:43:25;;;;;;;40.17;24.52;;;6.40;90.50;;;;;;5155068;27;20061;-81
2021/03/13 10:46:02;;;;;;;41.33;27.13;;;6.40;90.80;;;;;;5154894;27;20023;-81
2021/03/13 10:48:32;;;;;;;38.38;24.55;;;6.40;90.20;;;;;;5154945;27;20023;-82
2021/03/13 10:51:00;;;;;;;37.92;25.15;;;6.50;90.30;;;;;;5156331;27;20038;-83
2021/03/13 10:53:39;;;;;;;38.55;24.90;;;6.50;89.50;;;;;;5155394;27;20027;-82
2021/03/13 10:56:10;;;;;;;41.45;25.42;;;6.60;90.30;;;;;;5155055;27;20034;-82
2021/03/13 10:58:36;;;;;;;;;;;6.80;90.50;;;;;;5154890;27;20494;-84
2021/03/13 11:01:07;;;;;;;40.13;24.17;;;6.70;87.80;;;;;;5156327;27;19911;-84
2021/03/13 11:03:34;;;;;;;33.17;22.77;;;6.70;89.10;;;;;;5155443;27;20139;-84
2021/03/13 11:06:01;;;;;;;34.22;21.52;;;6.80;90.10;;;;;;5137730;27;20054;-91
2021/03/13 11:08:28;;;;;;;42.50;26.08;;;6.90;89.70;;;;;;5156562;27;20388;-90
2021/03/13 11:10:56;;;;;;;37.13;22.50;;;6.90;88.50;;;;;;5155894;27;20023;-92
2021/03/13 11:13:26;;;;;;;36.67;23.08;;;7.00;89.60;;;;;;5150653;27;20079;-91
2021/03/13 11:15:52;;;;;;;;;;;7.10;88.80;;;;;;5135340;27;20023;-90
2021/03/13 11:18:18;;;;;;;32.75;21.75;;;7.10;88.10;;;;;;5121416;27;19910;-88
2021/03/13 11:20:45;;;;;;;39.88;24.65;;;7.10;88.50;;;;;;5116323;27;20034;-87
2021/03/13 11:23:12;;;;;;;39.45;26.38;;;7.20;88.80;;;;;;5108123;28;20097;-88
2021/03/13 11:25:38;;;;;;;38.85;26.00;;;7.20;87.70;;;;;;5113977;28;20055;-86
2021/03/13 11:28:05;;;;;;;42.63;27.58;;;7.20;88.10;;;;;;5115061;28;20035;-91
2021/03/13 11:30:31;;;;;;;41.25;26.65;;;7.20;88.00;;;;;;5114005;28;20477;-91
2021/03/13 11:32:58;;;;;;;43.45;25.73;;;7.20;85.50;;;;;;5113620;28;20027;-87
2021/03/13 11:35:25;;;;;;;44.05;28.13;;;7.20;88.00;;;;;;5113436;28;20020;-86
2021/03/13 11:37:52;;;;;;;39.35;26.02;;;7.20;86.20;;;;;;5112788;28;20055;-85
2021/03/13 11:40:19;;;;;;;36.03;23.65;;;7.30;87.90;;;;;;5113216;28;20503;-81
2021/03/13 11:42:49;;;;;;;41.15;24.80;;;7.40;88.10;;;;;;5113286;28;20035;-84
2021/03/13 11:45:17;;;;;;;36.13;23.60;;;7.40;88.00;;;;;;5113387;28;20087;-83
2021/03/13 11:47:45;;;;;;;35.60;23.25;;;7.50;87.30;;;;;;5113265;28;20035;-83
2021/03/13 11:50:13;;;;;;;33.55;21.13;;;7.60;87.00;;;;;;5113422;28;20106;-83
2021/03/13 11:52:39;;;;;;;36.83;23.38;;;7.60;86.60;;;;;;5096205;28;20350;-84
2021/03/13 11:55:08;;;;;;;37.40;24.30;;;7.50;85.00;;;;;;5112824;28;20358;-84
2021/03/13 11:57:34;;;;;;;31.38;21.23;;;7.50;84.50;;;;;;5124990;27;20068;-81
2021/03/13 12:00:01;;;;;;;61.95;35.10;;;7.60;86.50;;;;;;5116589;27;20027;-81
2021/03/13 12:02:27;;;;;;;53.33;29.50;;;7.60;86.40;;;;;;5133666;27;20111;-81
2021/03/13 12:04:53;;;;;;;50.00;30.10;;;7.60;86.30;;;;;;5133421;27;20072;-80
2021/03/13 12:07:20;;;;;;;46.13;27.20;;;7.70;85.80;;;;;;5134169;27;20500;-82
2021/03/13 12:09:46;;;;;;;46.85;29.08;;;7.60;85.30;;;;;;5133050;27;20088;-81
2021/03/13 12:12:12;;;;;;;37.22;22.13;;;7.70;85.40;;;;;;5133506;28;20484;-86
2021/03/13 12:14:40;;;;;;;30.58;21.45;;;7.70;85.50;;;;;;5133274;28;20429;-81
2021/03/13 12:17:11;;;;;;;32.20;20.42;;;7.80;85.50;;;;;;5133307;28;20030;-80
2021/03/13 12:19:39;;;;;;;29.60;20.80;;;7.80;85.80;;;;;;5116835;28;20035;-82
2021/03/13 12:22:07;;;;;;;28.05;18.73;;;7.80;84.90;;;;;;5133639;27;20028;-80
2021/03/13 12:24:33;;;;;;;33.03;21.02;;;7.80;85.40;;;;;;5137911;27;20029;-81
2021/03/13 12:26:59;;;;;;;30.25;20.90;;;7.80;83.10;;;;;;5137408;27;20015;-80
2021/03/13 12:29:25;;;;;;;33.30;21.73;;;7.80;84.80;;;;;;5138848;27;20019;-80
2021/03/13 12:31:52;;;;;;;29.27;20.05;;;7.80;84.70;;;;;;5137408;27;20350;-80
2021/03/13 12:34:18;;;;;;;29.98;20.13;;;7.90;85.40;;;;;;5139013;27;20429;-80
2021/03/13 12:36:44;;;;;;;26.48;19.15;;;8.00;85.40;;;;;;5137302;27;20106;-81
2021/03/13 12:39:09;;;;;;;31.98;22.10;;;8.10;84.70;;;;;;5138576;27;20031;-81
2021/03/13 12:41:36;;;;;;;28.25;19.17;;;8.10;83.70;;;;;;5138161;27;20019;-81
2021/03/13 12:44:04;;;;;;;27.92;18.77;;;8.10;83.80;;;;;;5138495;27;20019;-81
2021/03/13 12:46:30;;;;;;;32.95;22.15;;;8.20;83.20;;;;;;5120187;27;20035;-81
2021/03/13 12:48:56;;;;;;;31.65;21.25;;;8.00;82.50;;;;;;5137058;27;20030;-81
2021/03/13 12:51:23;;;;;;;31.35;21.58;;;8.10;83.20;;;;;;5138383;27;20043;-81